createdAt,value
2018-10-06T00:01:48.640Z,99767.25
2018-10-06T00:04:18.300Z,99771.64
2018-10-06T00:06:47.916Z,99756.84
2018-10-06T00:09:17.521Z,99754.02
2018-10-06T00:11:47.223Z,99758.84
2018-10-06T00:14:16.833Z,99751.24
2018-10-06T00:16:46.440Z,99755.22
2018-10-06T00:19:16.104Z,99748.42
2018-10-06T00:21:45.722Z,99751.11
2018-10-06T00:24:15.353Z,99747.45
2018-10-06T00:26:45.060Z,99745.87
2018-10-06T00:29:14.701Z,99741.69
2018-10-06T00:31:44.326Z,99749.14
2018-10-06T00:34:13.972Z,99749.68
2018-10-06T00:36:43.604Z,99751.08
2018-10-06T00:39:13.251Z,99746.66
2018-10-06T00:41:42.867Z,99749.25
2018-10-06T00:44:12.472Z,99747.32
2018-10-06T00:46:42.136Z,99732.86
2018-10-06T00:49:11.760Z,99732.34
2018-10-06T00:51:41.381Z,99723.78
2018-10-06T00:54:11.068Z,99724.80
2018-10-06T00:56:40.760Z,99714.59
2018-10-06T00:59:10.363Z,99710.61
2018-10-06T01:01:40.036Z,99707.72
2018-10-06T01:04:09.908Z,99710.61
2018-10-06T01:06:39.532Z,99710.94
2018-10-06T01:09:10.500Z,99705.17
2018-10-06T01:11:40.701Z,99707.23
2018-10-06T01:14:10.359Z,99703.20
2018-10-06T01:16:39.990Z,99704.73
2018-10-06T01:19:09.696Z,99704.41
2018-10-06T01:21:39.380Z,99702.27
2018-10-06T01:24:09.021Z,99706.63
2018-10-06T01:26:38.648Z,99701.30
2018-10-06T01:29:08.360Z,99702.84
2018-10-06T01:31:37.987Z,99697.33
2018-10-06T01:34:07.639Z,99695.10
2018-10-06T01:36:37.325Z,99695.34
2018-10-06T01:39:07.687Z,99687.67
2018-10-06T01:41:37.351Z,99682.80
2018-10-06T01:44:07.073Z,99679.78
2018-10-06T01:46:36.735Z,99680.59
2018-10-06T01:49:06.397Z,99683.52
2018-10-06T01:51:36.013Z,99684.05
2018-10-06T01:54:05.639Z,99683.71
2018-10-06T01:56:35.348Z,99682.04
2018-10-06T01:59:04.976Z,99678.05
2018-10-06T02:01:34.615Z,99677.62
2018-10-06T02:04:04.332Z,99682.33
2018-10-06T02:06:33.976Z,99674.61
2018-10-06T02:09:03.764Z,99669.86
2018-10-06T02:11:33.456Z,99673.05
2018-10-06T02:14:03.096Z,99672.16
2018-10-06T02:16:32.714Z,99672.61
2018-10-06T02:19:02.397Z,99668.58
2018-10-06T02:21:32.028Z,99663.36
2018-10-06T02:24:01.640Z,99664.93
2018-10-06T02:26:31.341Z,99662.77
2018-10-06T02:29:00.962Z,99657.59
2018-10-06T02:31:30.589Z,99659.69
2018-10-06T02:34:00.428Z,99657.25
2018-10-06T02:36:30.336Z,99655.09
2018-10-06T02:38:59.952Z,99643.64
2018-10-06T02:41:29.617Z,99639.11
2018-10-06T02:43:59.236Z,99642.02
2018-10-06T02:46:28.842Z,99640.44
2018-10-06T02:48:58.507Z,99647.95
2018-10-06T02:51:28.123Z,99641.48
2018-10-06T02:53:57.732Z,99644.11
2018-10-06T02:56:27.641Z,99647.29
2018-10-06T02:58:57.266Z,99644.11
2018-10-06T03:01:26.880Z,99646.14
2018-10-06T03:03:56.555Z,99645.50
2018-10-06T03:06:26.237Z,99650.44
2018-10-06T03:08:55.864Z,99654.42
2018-10-06T03:11:25.541Z,99658.02
2018-10-06T03:13:55.329Z,99651.73
2018-10-06T03:16:25.484Z,99643.73
2018-10-06T03:18:55.251Z,99647.90
2018-10-06T03:21:24.945Z,99642.05
2018-10-06T03:23:54.579Z,99642.77
2018-10-06T03:26:24.273Z,99632.08
2018-10-06T03:28:53.891Z,99626.86
2018-10-06T03:31:23.560Z,99631.80
2018-10-06T03:33:53.256Z,99633.05
2018-10-06T03:36:22.875Z,99624.69
2018-10-06T03:38:52.516Z,99621.86
2018-10-06T03:41:22.127Z,99622.00
2018-10-06T03:43:52.129Z,99620.14
2018-10-06T03:46:21.772Z,99618.13
2018-10-06T03:48:51.384Z,99612.71
2018-10-06T03:51:21.049Z,99611.57
2018-10-06T03:53:50.833Z,99611.13
2018-10-06T03:56:20.416Z,99608.11
2018-10-06T03:58:50.388Z,99604.62
2018-10-06T04:01:20.001Z,99607.81
2018-10-06T04:03:49.628Z,99599.19
2018-10-06T04:06:19.319Z,99596.84
2018-10-06T04:08:48.936Z,99593.53
2018-10-06T04:11:18.571Z,99597.55
2018-10-06T04:13:48.242Z,99589.75
2018-10-06T04:16:17.860Z,99591.18
2018-10-06T04:18:47.519Z,99590.80
2018-10-06T04:21:17.127Z,99585.67
2018-10-06T04:23:47.198Z,99582.65
2018-10-06T04:26:16.871Z,99579.52
2018-10-06T04:28:46.484Z,99582.02
2018-10-06T04:31:16.153Z,99574.50
2018-10-06T04:33:45.760Z,99569.28
2018-10-06T04:36:15.390Z,99570.33
2018-10-06T04:38:45.081Z,99571.89
2018-10-06T04:41:14.704Z,99566.86
2018-10-06T04:43:44.328Z,99564.70
2018-10-06T04:46:14.022Z,99572.08
2018-10-06T04:48:43.637Z,99566.09
2018-10-06T04:51:13.337Z,99560.72
2018-10-06T04:53:43.033Z,99563.33
2018-10-06T04:56:12.705Z,99559.64
2018-10-06T04:58:42.324Z,99568.03
2018-10-06T05:01:12.006Z,99558.34
2018-10-06T05:03:41.628Z,99557.19
2018-10-06T05:06:12.236Z,99559.69
2018-10-06T05:08:41.862Z,99561.21
2018-10-06T05:11:11.482Z,99555.03
2018-10-06T05:13:41.192Z,99538.61
2018-10-06T05:16:10.828Z,99546.31
2018-10-06T05:18:40.452Z,99545.80
2018-10-06T05:21:10.125Z,99547.88
2018-10-06T05:23:39.837Z,99544.68
2018-10-06T05:26:09.448Z,99546.13
2018-10-06T05:28:39.827Z,99546.31
2018-10-06T05:31:09.440Z,99548.84
2018-10-06T05:33:39.128Z,99555.22
2018-10-06T05:36:08.757Z,99548.77
2018-10-06T05:38:38.381Z,99550.16
2018-10-06T05:41:08.081Z,99551.49
2018-10-06T05:43:37.717Z,99555.73
2018-10-06T05:46:07.644Z,99543.63
2018-10-06T05:48:37.324Z,99545.83
2018-10-06T05:51:07.448Z,99554.02
2018-10-06T05:53:37.149Z,99562.73
2018-10-06T05:56:06.808Z,99559.38
2018-10-06T05:58:36.427Z,99565.23
2018-10-06T06:01:06.084Z,99568.20
2018-10-06T06:03:35.756Z,99568.09
2018-10-06T06:06:05.436Z,99562.22
2018-10-06T06:08:35.103Z,99565.91
2018-10-06T06:11:04.717Z,99570.25
2018-10-06T06:13:34.331Z,99569.55
2018-10-06T06:16:04.093Z,99573.02
2018-10-06T06:18:33.758Z,99571.34
2018-10-06T06:21:03.374Z,99574.32
2018-10-06T06:23:33.051Z,99576.14
2018-10-06T06:26:02.688Z,99576.63
2018-10-06T06:28:32.316Z,99576.14
2018-10-06T06:31:01.993Z,99573.86
2018-10-06T06:33:31.615Z,99572.83
2018-10-06T06:36:01.281Z,99567.98
2018-10-06T06:38:30.986Z,99566.30
2018-10-06T06:41:00.569Z,99568.89
2018-10-06T06:43:30.290Z,99565.50
2018-10-06T06:45:59.916Z,99562.34
2018-10-06T06:48:29.592Z,99560.67
2018-10-06T06:50:59.252Z,99558.60
2018-10-06T06:53:28.883Z,99554.72
2018-10-06T06:55:58.596Z,99556.97
2018-10-06T06:58:28.232Z,99553.52
2018-10-06T07:00:57.866Z,99557.11
2018-10-06T07:03:27.508Z,99557.39
2018-10-06T07:05:57.152Z,99558.42
2018-10-06T07:08:26.844Z,99550.67
2018-10-06T07:10:56.476Z,99544.54
2018-10-06T07:13:26.396Z,99548.52
2018-10-06T07:15:56.008Z,99550.87
2018-10-06T07:18:25.684Z,99541.95
2018-10-06T07:20:55.372Z,99543.55
2018-10-06T07:23:24.988Z,99537.92
2018-10-06T07:25:54.644Z,99542.09
2018-10-06T07:28:24.348Z,99544.98
2018-10-06T07:30:54.239Z,99544.09
2018-10-06T07:33:23.970Z,99544.36
2018-10-06T07:35:53.684Z,99546.32
2018-10-06T07:38:23.304Z,99543.66
2018-10-06T07:40:53.027Z,99540.95
2018-10-06T07:43:22.712Z,99536.31
2018-10-06T07:45:52.753Z,99529.55
2018-10-06T07:48:22.440Z,99533.19
2018-10-06T07:50:52.088Z,99527.11
2018-10-06T07:53:21.786Z,99526.60
2018-10-06T07:55:51.518Z,99526.27
2018-10-06T07:58:21.128Z,99527.13
2018-10-06T08:00:51.108Z,99527.76
2018-10-06T08:03:20.728Z,99523.05
2018-10-06T08:05:50.568Z,99525.53
2018-10-06T08:08:20.185Z,99516.25
2018-10-06T08:10:49.812Z,99518.45
2018-10-06T08:13:19.513Z,99517.14
2018-10-06T08:15:49.184Z,99521.23
2018-10-06T08:18:18.820Z,99525.48
2018-10-06T08:20:48.500Z,99525.75
2018-10-06T08:23:18.140Z,99526.50
2018-10-06T08:25:47.891Z,99527.16
2018-10-06T08:28:17.560Z,99529.77
2018-10-06T08:30:47.320Z,99531.44
2018-10-06T08:33:16.955Z,99523.25
2018-10-06T08:35:46.611Z,99527.72
2018-10-06T08:38:16.320Z,99524.09
2018-10-06T08:40:45.967Z,99525.55
2018-10-06T08:43:15.602Z,99520.02
2018-10-06T08:45:45.256Z,99515.23
2018-10-06T08:48:14.887Z,99508.51
2018-10-06T08:50:45.536Z,99509.88
2018-10-06T08:53:15.210Z,99505.34
2018-10-06T08:55:44.993Z,99507.34
2018-10-06T08:58:14.649Z,99507.75
2018-10-06T09:00:44.360Z,99502.63
2018-10-06T09:03:14.016Z,99504.59
2018-10-06T09:05:43.656Z,99509.00
2018-10-06T09:08:13.288Z,99502.01
2018-10-06T09:10:42.990Z,99501.62
2018-10-06T09:13:12.612Z,99496.32
2018-10-06T09:15:42.292Z,99488.75
2018-10-06T09:18:11.944Z,99486.56
2018-10-06T09:20:41.598Z,99483.26
2018-10-06T09:23:11.496Z,99487.06
2018-10-06T09:25:41.168Z,99479.48
2018-10-06T09:28:10.891Z,99475.56
2018-10-06T09:30:40.525Z,99479.68
2018-10-06T09:33:10.173Z,99477.64
2018-10-06T09:35:39.828Z,99465.69
2018-10-06T09:38:09.469Z,99459.13
2018-10-06T09:40:39.151Z,99459.31
2018-10-06T09:43:08.789Z,99459.63
2018-10-06T09:45:38.444Z,99449.70
2018-10-06T09:48:08.129Z,99454.26
2018-10-06T09:50:37.736Z,99457.82
2018-10-06T09:53:07.356Z,99450.61
2018-10-06T09:55:37.012Z,99445.91
2018-10-06T09:58:06.671Z,99445.88
2018-10-06T10:00:41.484Z,99440.48
2018-10-06T10:03:16.309Z,99430.02
2018-10-06T10:05:49.802Z,99426.55
2018-10-06T10:08:19.443Z,99414.92
2018-10-06T10:10:50.064Z,99417.45
2018-10-06T10:13:20.268Z,99408.12
2018-10-06T10:15:49.954Z,99408.19
2018-10-06T10:18:19.660Z,99402.17
2018-10-06T10:20:49.636Z,99403.03
2018-10-06T10:23:19.411Z,99402.52
2018-10-06T10:25:49.565Z,99404.17
2018-10-06T10:28:19.213Z,99401.16
2018-10-06T10:30:48.868Z,99398.93
2018-10-06T10:33:18.526Z,99396.94
2018-10-06T10:35:48.183Z,99396.67
2018-10-06T10:38:17.846Z,99394.16
2018-10-06T10:40:47.534Z,99400.70
2018-10-06T10:43:17.251Z,99390.23
2018-10-06T10:45:46.932Z,99399.46
2018-10-06T10:48:16.677Z,99391.02
2018-10-06T10:50:46.421Z,99397.19
2018-10-06T10:53:16.004Z,99387.73
2018-10-06T10:55:45.709Z,99392.36
2018-10-06T10:58:15.365Z,99392.98
2018-10-06T11:00:45.052Z,99397.01
2018-10-06T11:03:14.687Z,99397.48
2018-10-06T11:05:44.376Z,99399.91
2018-10-06T11:08:14.022Z,99400.47
2018-10-06T11:10:43.644Z,99388.73
2018-10-06T11:13:13.327Z,99385.08
2018-10-06T11:15:42.976Z,99377.03
2018-10-06T11:18:12.612Z,99373.88
2018-10-06T11:20:42.312Z,99367.30
2018-10-06T11:23:11.944Z,99364.91
2018-10-06T11:25:41.588Z,99363.47
2018-10-06T11:28:11.224Z,99354.56
2018-10-06T11:30:40.872Z,99356.61
2018-10-06T11:33:10.520Z,99348.80
2018-10-06T11:35:40.180Z,99342.07
2018-10-06T11:38:09.881Z,99341.98
2018-10-06T11:40:39.708Z,99332.95
2018-10-06T11:43:09.344Z,99332.16
2018-10-06T11:45:39.002Z,99323.41
2018-10-06T11:48:08.627Z,99323.45
2018-10-06T11:50:38.348Z,99315.54
2018-10-06T11:53:07.984Z,99309.99
2018-10-06T11:55:37.604Z,99303.53
2018-10-06T11:58:07.268Z,99307.63
2018-10-06T12:00:37.060Z,99295.98
2018-10-06T12:03:06.723Z,99299.04
2018-10-06T12:05:36.461Z,99287.77
2018-10-06T12:08:06.176Z,99291.86
2018-10-06T12:10:35.811Z,99291.95
2018-10-06T12:13:05.512Z,99287.97
2018-10-06T12:15:35.152Z,99285.30
2018-10-06T12:18:04.814Z,99277.72
2018-10-06T12:20:34.564Z,99278.35
2018-10-06T12:23:04.194Z,99272.90
2018-10-06T12:25:33.806Z,99270.16
2018-10-06T12:28:03.514Z,99263.97
2018-10-06T12:30:33.137Z,99269.42
2018-10-06T12:33:02.765Z,99258.51
2018-10-06T12:35:32.527Z,99257.91
2018-10-06T12:38:02.942Z,99253.55
2018-10-06T12:40:32.619Z,99258.72
2018-10-06T12:43:02.243Z,99255.19
2018-10-06T12:45:31.886Z,99245.61
2018-10-06T12:48:01.544Z,99245.47
2018-10-06T12:50:31.209Z,99243.02
2018-10-06T12:53:00.853Z,99234.02
2018-10-06T12:55:30.573Z,99243.89
2018-10-06T12:58:00.193Z,99240.31
2018-10-06T13:00:29.908Z,99243.30
2018-10-06T13:02:59.588Z,99239.66
2018-10-06T13:05:29.238Z,99233.63
2018-10-06T13:07:58.889Z,99236.91
2018-10-06T13:10:28.540Z,99236.38
2018-10-06T13:12:58.173Z,99225.75
2018-10-06T13:15:27.820Z,99232.09
2018-10-06T13:17:57.492Z,99220.34
2018-10-06T13:20:27.126Z,99220.07
2018-10-06T13:22:56.783Z,99219.27
2018-10-06T13:25:26.568Z,99218.97
2018-10-06T13:27:56.209Z,99219.25
2018-10-06T13:30:25.860Z,99216.78
2018-10-06T13:32:55.520Z,99211.32
2018-10-06T13:35:25.156Z,99217.89
2018-10-06T13:37:54.812Z,99203.94
2018-10-06T13:40:24.451Z,99202.03
2018-10-06T13:42:54.135Z,99202.84
2018-10-06T13:45:23.760Z,99192.47
2018-10-06T13:47:53.445Z,99192.74
2018-10-06T13:50:23.089Z,99192.17
2018-10-06T13:52:52.732Z,99183.13
2018-10-06T13:55:22.373Z,99181.45
2018-10-06T13:57:52.200Z,99177.55
2018-10-06T14:00:22.142Z,99173.70
2018-10-06T14:02:51.904Z,99171.48
2018-10-06T14:05:21.535Z,99165.22
2018-10-06T14:07:51.441Z,99163.34
2018-10-06T14:10:21.076Z,99163.39
2018-10-06T14:12:50.731Z,99163.40
2018-10-06T14:15:20.356Z,99164.53
2018-10-06T14:17:50.020Z,99162.03
2018-10-06T14:20:19.651Z,99156.83
2018-10-06T14:22:49.296Z,99157.11
2018-10-06T14:25:18.913Z,99151.05
2018-10-06T14:27:48.552Z,99153.82
2018-10-06T14:30:18.180Z,99145.38
2018-10-06T14:32:47.937Z,99160.98
2018-10-06T14:35:17.592Z,99145.97
2018-10-06T14:37:47.248Z,99149.23
2018-10-06T14:40:16.893Z,99147.84
2018-10-06T14:42:46.567Z,99154.17
2018-10-06T14:45:16.212Z,99145.38
2018-10-06T14:47:45.826Z,99146.48
2018-10-06T14:50:15.631Z,99143.75
2018-10-06T14:52:45.216Z,99136.34
2018-10-06T14:55:14.857Z,99145.38
2018-10-06T14:57:44.529Z,99136.64
2018-10-06T15:00:14.244Z,99134.72
2018-10-06T15:02:43.867Z,99133.91
2018-10-06T15:05:13.537Z,99131.17
2018-10-06T15:07:43.171Z,99127.35
2018-10-06T15:10:12.842Z,99131.17
2018-10-06T15:12:42.528Z,99125.95
2018-10-06T15:15:12.175Z,99125.37
2018-10-06T15:17:41.828Z,99124.48
2018-10-06T15:20:11.540Z,99126.13
2018-10-06T15:22:41.176Z,99125.29
2018-10-06T15:25:10.864Z,99117.05
2018-10-06T15:27:40.531Z,99117.03
2018-10-06T15:30:10.177Z,99116.75
2018-10-06T15:32:39.859Z,99105.83
2018-10-06T15:35:09.543Z,99101.69
2018-10-06T15:37:39.191Z,99109.28
2018-10-06T15:40:08.884Z,99106.02
2018-10-06T15:42:38.605Z,99103.27
2018-10-06T15:45:08.664Z,99108.13
2018-10-06T15:47:38.315Z,99101.53
2018-10-06T15:50:08.016Z,99103.66
2018-10-06T15:52:37.676Z,99101.66
2018-10-06T15:55:07.402Z,99102.67
2018-10-06T15:57:37.032Z,99104.88
2018-10-06T16:00:07.211Z,99101.22
2018-10-06T16:02:37.082Z,99116.71
2018-10-06T16:05:06.744Z,99100.06
2018-10-06T16:07:36.376Z,99105.50
2018-10-06T16:10:06.817Z,99100.23
2018-10-06T16:12:36.438Z,99103.73
2018-10-06T16:15:06.404Z,99103.10
2018-10-06T16:17:36.036Z,99103.03
2018-10-06T16:20:05.748Z,99106.26
2018-10-06T16:22:36.344Z,99108.72
2018-10-06T16:25:06.046Z,99106.55
2018-10-06T16:27:35.757Z,99104.79
2018-10-06T16:30:06.325Z,99113.00
2018-10-06T16:32:35.976Z,99115.12
2018-10-06T16:35:05.656Z,99116.48
2018-10-06T16:37:35.332Z,99117.69
2018-10-06T16:40:05.020Z,99109.52
2018-10-06T16:42:34.632Z,99114.68
2018-10-06T16:45:04.351Z,99115.10
2018-10-06T16:47:33.997Z,99112.38
2018-10-06T16:50:03.649Z,99120.94
2018-10-06T16:52:33.331Z,99117.30
2018-10-06T16:55:02.970Z,99117.45
2018-10-06T16:57:32.593Z,99120.32
2018-10-06T17:00:02.342Z,99121.09
2018-10-06T17:02:31.936Z,99119.77
2018-10-06T17:05:01.580Z,99125.02
2018-10-06T17:07:31.250Z,99126.38
2018-10-06T17:10:00.884Z,99123.23
2018-10-06T17:12:30.565Z,99126.72
2018-10-06T17:15:00.236Z,99122.98
2018-10-06T17:17:29.892Z,99124.84
2018-10-06T17:19:59.591Z,99127.91
2018-10-06T17:22:29.283Z,99128.92
2018-10-06T17:24:58.982Z,99138.31
2018-10-06T17:27:28.614Z,99135.70
2018-10-06T17:29:58.307Z,99140.94
2018-10-06T17:32:27.952Z,99127.42
2018-10-06T17:34:57.587Z,99128.11
2018-10-06T17:37:27.312Z,99128.86
2018-10-06T17:39:57.000Z,99132.45
2018-10-06T17:42:26.649Z,99133.25
2018-10-06T17:44:56.339Z,99132.80
2018-10-06T17:47:26.000Z,99140.55
2018-10-06T17:49:55.760Z,99141.55
2018-10-06T17:52:25.412Z,99142.50
2018-10-06T17:54:55.057Z,99140.47
2018-10-06T17:57:24.751Z,99146.41
2018-10-06T17:59:54.435Z,99152.70
2018-10-06T18:02:24.337Z,99149.27
2018-10-06T18:04:54.159Z,99151.58
2018-10-06T18:07:23.817Z,99151.25
2018-10-06T18:09:53.582Z,99155.89
2018-10-06T18:12:23.265Z,99150.33
2018-10-06T18:14:52.884Z,99149.00
2018-10-06T18:17:22.517Z,99148.75
2018-10-06T18:19:52.220Z,99153.50
2018-10-06T18:22:21.828Z,99148.89
2018-10-06T18:24:51.452Z,99152.85
2018-10-06T18:27:21.201Z,99152.25
2018-10-06T18:29:50.799Z,99158.86
2018-10-06T18:32:20.436Z,99158.27
2018-10-06T18:34:50.129Z,99158.80
2018-10-06T18:37:19.815Z,99164.55
2018-10-06T18:39:49.435Z,99163.48
2018-10-06T18:42:19.104Z,99161.90
2018-10-06T18:44:48.732Z,99171.02
2018-10-06T18:47:18.408Z,99175.39
2018-10-06T18:49:48.072Z,99172.86
2018-10-06T18:52:17.733Z,99178.23
2018-10-06T18:54:47.432Z,99177.74
2018-10-06T18:57:17.433Z,99179.28
2018-10-06T18:59:47.076Z,99178.86
2018-10-06T19:02:17.050Z,99185.75
2018-10-06T19:04:47.039Z,99182.52
2018-10-06T19:07:17.103Z,99192.23
2018-10-06T19:09:47.229Z,99185.36
2018-10-06T19:12:17.386Z,99188.74
2018-10-06T19:14:47.486Z,99191.87
2018-10-06T19:17:17.521Z,99187.75
2018-10-06T19:19:47.552Z,99191.66
2018-10-06T19:22:17.692Z,99191.59
2018-10-06T19:24:47.718Z,99201.03
2018-10-06T19:27:17.740Z,99198.31
2018-10-06T19:29:47.526Z,99200.47
2018-10-06T19:32:17.607Z,99194.81
2018-10-06T19:34:47.536Z,99196.75
2018-10-06T19:37:17.261Z,99197.48
2018-10-06T19:39:46.950Z,99198.08
2018-10-06T19:42:16.563Z,99198.31
2018-10-06T19:44:46.238Z,99195.54
2018-10-06T19:47:15.885Z,99200.59
2018-10-06T19:49:45.541Z,99200.89
2018-10-06T19:52:15.240Z,99199.84
2018-10-06T19:54:44.892Z,99204.01
2018-10-06T19:57:14.513Z,99203.13
2018-10-06T19:59:44.184Z,99212.37
2018-10-06T20:02:13.846Z,99208.52
2018-10-06T20:04:43.471Z,99203.02
2018-10-06T20:07:13.146Z,99211.48
2018-10-06T20:09:42.783Z,99216.31
2018-10-06T20:12:12.479Z,99205.31
2018-10-06T20:14:42.162Z,99212.69
2018-10-06T20:17:11.802Z,99210.61
2018-10-06T20:19:41.432Z,99214.44
2018-10-06T20:22:12.209Z,99211.50
2018-10-06T20:24:41.848Z,99208.16
2018-10-06T20:27:11.503Z,99214.55
2018-10-06T20:29:41.172Z,99217.41
2018-10-06T20:32:10.812Z,99222.98
2018-10-06T20:34:40.448Z,99223.27
2018-10-06T20:37:10.123Z,99222.60
2018-10-06T20:39:39.767Z,99224.09
2018-10-06T20:42:09.425Z,99229.28
2018-10-06T20:44:39.115Z,99229.37
2018-10-06T20:47:09.437Z,99230.02
2018-10-06T20:49:39.096Z,99230.34
2018-10-06T20:52:08.724Z,99235.32
2018-10-06T20:54:38.349Z,99232.89
2018-10-06T20:57:08.100Z,99233.05
2018-10-06T20:59:37.738Z,99236.52
2018-10-06T21:02:07.562Z,99235.09
2018-10-06T21:04:37.175Z,99234.33
2018-10-06T21:07:06.832Z,99239.00
2018-10-06T21:09:36.440Z,99234.70
2018-10-06T21:12:06.148Z,99228.48
2018-10-06T21:14:35.800Z,99229.30
2018-10-06T21:17:05.484Z,99237.80
2018-10-06T21:19:35.160Z,99230.50
2018-10-06T21:22:04.820Z,99232.54
2018-10-06T21:24:34.468Z,99223.66
2018-10-06T21:27:04.151Z,99221.92
2018-10-06T21:29:34.042Z,99221.34
2018-10-06T21:32:03.617Z,99220.21
2018-10-06T21:34:33.300Z,99228.25
2018-10-06T21:37:02.957Z,99228.64
2018-10-06T21:39:32.698Z,99223.39
2018-10-06T21:42:02.381Z,99223.69
2018-10-06T21:44:32.016Z,99220.98
2018-10-06T21:47:01.660Z,99224.95
2018-10-06T21:49:31.499Z,99226.69
2018-10-06T21:52:01.144Z,99224.49
2018-10-06T21:54:30.785Z,99232.03
2018-10-06T21:57:00.465Z,99225.99
2018-10-06T21:59:30.111Z,99236.41
2018-10-06T22:01:59.771Z,99234.28
2018-10-06T22:04:29.460Z,99239.02
2018-10-06T22:06:59.108Z,99236.43
2018-10-06T22:09:28.748Z,99236.22
2018-10-06T22:11:58.417Z,99231.48
2018-10-06T22:14:28.076Z,99233.52
2018-10-06T22:16:57.711Z,99231.10
2018-10-06T22:19:27.449Z,99233.59
2018-10-06T22:21:57.084Z,99231.01
2018-10-06T22:24:26.720Z,99225.91
2018-10-06T22:26:56.396Z,99225.78
2018-10-06T22:29:26.137Z,99223.37
2018-10-06T22:31:55.683Z,99234.88
2018-10-06T22:34:25.368Z,99235.45
2018-10-06T22:36:55.008Z,99230.35
2018-10-06T22:39:24.677Z,99230.81
2018-10-06T22:41:54.363Z,99238.22
2018-10-06T22:44:24.032Z,99233.13
2018-10-06T22:46:53.767Z,99242.25
2018-10-06T22:49:23.444Z,99233.77
2018-10-06T22:51:53.175Z,99236.95
2018-10-06T22:54:22.820Z,99232.48
2018-10-06T22:56:52.523Z,99233.25
2018-10-06T22:59:22.177Z,99239.72
2018-10-06T23:01:51.837Z,99234.38
2018-10-06T23:04:21.521Z,99231.81
2018-10-06T23:06:51.184Z,99231.39
2018-10-06T23:09:20.812Z,99228.69
2018-10-06T23:11:50.492Z,99234.55
2018-10-06T23:14:20.129Z,99225.67
2018-10-06T23:16:49.773Z,99237.22
2018-10-06T23:19:19.440Z,99238.17
2018-10-06T23:21:49.067Z,99234.58
2018-10-06T23:24:18.716Z,99242.82
2018-10-06T23:26:49.032Z,99237.48
2018-10-06T23:29:18.904Z,99244.45
2018-10-06T23:31:48.525Z,99242.57
2018-10-06T23:34:18.179Z,99247.51
2018-10-06T23:36:47.807Z,99252.50
2018-10-06T23:39:17.448Z,99252.63
2018-10-06T23:41:47.108Z,99256.09
2018-10-06T23:44:16.772Z,99257.44
2018-10-06T23:46:46.411Z,99264.25
2018-10-06T23:49:16.087Z,99262.22
2018-10-06T23:51:45.712Z,99267.80
2018-10-06T23:54:15.380Z,99271.66
2018-10-06T23:56:45.004Z,99274.28
2018-10-06T23:59:14.662Z,99279.32
